sensor_id;sensor_type;location;lat;lon;timestamp;P1;durP1;ratioP1;P2;durP2;ratioP2
40971;SDS011;26701;47.408;19.174;2023-02-22T00:00:39;17.45;;;5.45;;
40971;SDS011;26701;47.408;19.174;2023-02-22T00:03:13;6.35;;;3.53;;
40971;SDS011;26701;47.408;19.174;2023-02-22T00:05:51;8.93;;;4.38;;
40971;SDS011;26701;47.408;19.174;2023-02-22T00:08:18;5.70;;;3.72;;
40971;SDS011;26701;47.408;19.174;2023-02-22T00:10:46;7.22;;;4.00;;
40971;SDS011;26701;47.408;19.174;2023-02-22T00:13:16;6.75;;;4.30;;
40971;SDS011;26701;47.408;19.174;2023-02-22T00:15:43;7.80;;;5.00;;
40971;SDS011;26701;47.408;19.174;2023-02-22T00:18:13;7.97;;;4.53;;
40971;SDS011;26701;47.408;19.174;2023-02-22T00:20:39;8.68;;;3.95;;
40971;SDS011;26701;47.408;19.174;2023-02-22T00:23:06;9.32;;;4.78;;
40971;SDS011;26701;47.408;19.174;2023-02-22T00:25:33;5.82;;;3.97;;
40971;SDS011;26701;47.408;19.174;2023-02-22T00:27:59;7.68;;;4.40;;
40971;SDS011;26701;47.408;19.174;2023-02-22T00:30:26;7.80;;;4.25;;
40971;SDS011;26701;47.408;19.174;2023-02-22T00:32:54;8.63;;;4.35;;
40971;SDS011;26701;47.408;19.174;2023-02-22T00:35:21;6.60;;;4.10;;
40971;SDS011;26701;47.408;19.174;2023-02-22T00:37:51;9.40;;;4.22;;
40971;SDS011;26701;47.408;19.174;2023-02-22T00:40:18;7.10;;;4.20;;
40971;SDS011;26701;47.408;19.174;2023-02-22T00:42:50;8.02;;;3.90;;
40971;SDS011;26701;47.408;19.174;2023-02-22T00:45:18;8.88;;;5.00;;
40971;SDS011;26701;47.408;19.174;2023-02-22T00:47:45;9.45;;;4.95;;
40971;SDS011;26701;47.408;19.174;2023-02-22T00:50:14;9.13;;;4.57;;
40971;SDS011;26701;47.408;19.174;2023-02-22T00:52:43;6.57;;;3.97;;
40971;SDS011;26701;47.408;19.174;2023-02-22T00:55:13;10.75;;;5.30;;
40971;SDS011;26701;47.408;19.174;2023-02-22T00:57:40;7.88;;;4.50;;
40971;SDS011;26701;47.408;19.174;2023-02-22T01:00:07;9.60;;;4.82;;
40971;SDS011;26701;47.408;19.174;2023-02-22T01:02:41;8.45;;;4.85;;
40971;SDS011;26701;47.408;19.174;2023-02-22T01:05:08;7.65;;;4.95;;
40971;SDS011;26701;47.408;19.174;2023-02-22T01:07:37;10.77;;;4.38;;
40971;SDS011;26701;47.408;19.174;2023-02-22T01:10:03;7.95;;;4.85;;
40971;SDS011;26701;47.408;19.174;2023-02-22T01:12:32;8.98;;;4.97;;
40971;SDS011;26701;47.408;19.174;2023-02-22T01:14:59;11.18;;;5.70;;
40971;SDS011;26701;47.408;19.174;2023-02-22T01:17:25;9.13;;;5.80;;
40971;SDS011;26701;47.408;19.174;2023-02-22T01:19:52;9.70;;;5.43;;
40971;SDS011;26701;47.408;19.174;2023-02-22T01:22:18;8.85;;;5.40;;
40971;SDS011;26701;47.408;19.174;2023-02-22T01:24:46;7.18;;;4.55;;
40971;SDS011;26701;47.408;19.174;2023-02-22T01:27:12;8.70;;;4.75;;
40971;SDS011;26701;47.408;19.174;2023-02-22T01:29:38;8.85;;;4.60;;
40971;SDS011;26701;47.408;19.174;2023-02-22T01:32:05;11.15;;;5.35;;
40971;SDS011;26701;47.408;19.174;2023-02-22T01:34:32;11.93;;;5.85;;
40971;SDS011;26701;47.408;19.174;2023-02-22T01:36:59;8.30;;;5.45;;
40971;SDS011;26701;47.408;19.174;2023-02-22T01:39:29;9.35;;;5.28;;
40971;SDS011;26701;47.408;19.174;2023-02-22T01:41:55;6.82;;;4.80;;
40971;SDS011;26701;47.408;19.174;2023-02-22T01:47:00;9.45;;;5.57;;
40971;SDS011;26701;47.408;19.174;2023-02-22T01:49:32;10.27;;;5.75;;
40971;SDS011;26701;47.408;19.174;2023-02-22T01:52:01;8.63;;;5.00;;
40971;SDS011;26701;47.408;19.174;2023-02-22T01:54:32;10.70;;;5.18;;
40971;SDS011;26701;47.408;19.174;2023-02-22T01:59:27;9.68;;;5.75;;
40971;SDS011;26701;47.408;19.174;2023-02-22T02:01:57;9.13;;;5.65;;
40971;SDS011;26701;47.408;19.174;2023-02-22T02:04:24;8.43;;;5.10;;
40971;SDS011;26701;47.408;19.174;2023-02-22T02:06:53;10.10;;;5.47;;
40971;SDS011;26701;47.408;19.174;2023-02-22T02:09:26;9.38;;;5.80;;
40971;SDS011;26701;47.408;19.174;2023-02-22T02:11:57;10.13;;;5.45;;
40971;SDS011;26701;47.408;19.174;2023-02-22T02:14:29;9.02;;;5.60;;
40971;SDS011;26701;47.408;19.174;2023-02-22T02:16:56;12.75;;;6.78;;
40971;SDS011;26701;47.408;19.174;2023-02-22T02:35:55;13.95;;;6.63;;
40971;SDS011;26701;47.408;19.174;2023-02-22T02:41:07;11.52;;;6.80;;
40971;SDS011;26701;47.408;19.174;2023-02-22T02:46:14;10.50;;;6.15;;
40971;SDS011;26701;47.408;19.174;2023-02-22T02:48:43;10.18;;;6.05;;
40971;SDS011;26701;47.408;19.174;2023-02-22T02:51:14;11.63;;;6.45;;
40971;SDS011;26701;47.408;19.174;2023-02-22T02:53:42;15.05;;;8.45;;
40971;SDS011;26701;47.408;19.174;2023-02-22T02:56:09;13.35;;;7.63;;
40971;SDS011;26701;47.408;19.174;2023-02-22T02:58:43;14.10;;;7.22;;
40971;SDS011;26701;47.408;19.174;2023-02-22T03:01:09;13.57;;;7.05;;
40971;SDS011;26701;47.408;19.174;2023-02-22T03:03:42;11.55;;;6.15;;
40971;SDS011;26701;47.408;19.174;2023-02-22T03:11:18;13.30;;;7.35;;
40971;SDS011;26701;47.408;19.174;2023-02-22T03:13:55;11.85;;;6.72;;
40971;SDS011;26701;47.408;19.174;2023-02-22T03:22:28;15.02;;;6.95;;
40971;SDS011;26701;47.408;19.174;2023-02-22T03:25:06;12.43;;;6.68;;
40971;SDS011;26701;47.408;19.174;2023-02-22T03:27:36;15.73;;;6.68;;
40971;SDS011;26701;47.408;19.174;2023-02-22T03:33:09;10.68;;;6.45;;
40971;SDS011;26701;47.408;19.174;2023-02-22T03:35:43;20.73;;;11.68;;
40971;SDS011;26701;47.408;19.174;2023-02-22T03:38:15;19.55;;;9.05;;
40971;SDS011;26701;47.408;19.174;2023-02-22T03:40:47;13.63;;;6.55;;
40971;SDS011;26701;47.408;19.174;2023-02-22T03:43:17;12.73;;;7.15;;
40971;SDS011;26701;47.408;19.174;2023-02-22T03:45:46;12.10;;;6.90;;
40971;SDS011;26701;47.408;19.174;2023-02-22T03:48:28;10.73;;;6.07;;
40971;SDS011;26701;47.408;19.174;2023-02-22T03:50:58;9.55;;;5.43;;
40971;SDS011;26701;47.408;19.174;2023-02-22T03:53:28;8.93;;;5.45;;
40971;SDS011;26701;47.408;19.174;2023-02-22T03:55:55;8.73;;;5.22;;
40971;SDS011;26701;47.408;19.174;2023-02-22T03:58:22;9.00;;;5.47;;
40971;SDS011;26701;47.408;19.174;2023-02-22T04:00:49;12.48;;;6.10;;
40971;SDS011;26701;47.408;19.174;2023-02-22T04:03:20;11.02;;;6.40;;
40971;SDS011;26701;47.408;19.174;2023-02-22T04:05:47;13.35;;;6.95;;
40971;SDS011;26701;47.408;19.174;2023-02-22T04:08:13;12.48;;;6.25;;
40971;SDS011;26701;47.408;19.174;2023-02-22T04:10:40;10.77;;;6.47;;
40971;SDS011;26701;47.408;19.174;2023-02-22T04:13:07;16.02;;;9.02;;
40971;SDS011;26701;47.408;19.174;2023-02-22T04:15:36;11.13;;;6.05;;
40971;SDS011;26701;47.408;19.174;2023-02-22T04:18:04;11.00;;;6.40;;
40971;SDS011;26701;47.408;19.174;2023-02-22T04:20:31;10.27;;;6.13;;
40971;SDS011;26701;47.408;19.174;2023-02-22T04:23:12;9.85;;;6.80;;
40971;SDS011;26701;47.408;19.174;2023-02-22T04:25:40;10.43;;;6.80;;
40971;SDS011;26701;47.408;19.174;2023-02-22T04:28:10;11.70;;;6.32;;
40971;SDS011;26701;47.408;19.174;2023-02-22T04:30:43;14.70;;;7.15;;
40971;SDS011;26701;47.408;19.174;2023-02-22T04:33:13;12.40;;;7.25;;
40971;SDS011;26701;47.408;19.174;2023-02-22T04:35:40;14.15;;;7.68;;
40971;SDS011;26701;47.408;19.174;2023-02-22T04:38:06;11.75;;;6.40;;
40971;SDS011;26701;47.408;19.174;2023-02-22T04:40:34;15.13;;;7.63;;
40971;SDS011;26701;47.408;19.174;2023-02-22T04:43:00;11.55;;;7.78;;
40971;SDS011;26701;47.408;19.174;2023-02-22T04:45:27;17.98;;;8.82;;
40971;SDS011;26701;47.408;19.174;2023-02-22T04:47:53;15.60;;;8.75;;
40971;SDS011;26701;47.408;19.174;2023-02-22T04:50:20;12.70;;;7.53;;
40971;SDS011;26701;47.408;19.174;2023-02-22T04:52:46;13.25;;;7.72;;
40971;SDS011;26701;47.408;19.174;2023-02-22T04:55:12;14.43;;;7.63;;
40971;SDS011;26701;47.408;19.174;2023-02-22T04:57:38;12.55;;;6.45;;
40971;SDS011;26701;47.408;19.174;2023-02-22T05:00:05;10.40;;;6.57;;
40971;SDS011;26701;47.408;19.174;2023-02-22T05:02:33;12.52;;;7.28;;
40971;SDS011;26701;47.408;19.174;2023-02-22T05:04:59;14.95;;;8.20;;
40971;SDS011;26701;47.408;19.174;2023-02-22T05:07:25;14.70;;;7.70;;
40971;SDS011;26701;47.408;19.174;2023-02-22T05:09:51;13.30;;;8.23;;
40971;SDS011;26701;47.408;19.174;2023-02-22T05:12:17;13.73;;;7.63;;
40971;SDS011;26701;47.408;19.174;2023-02-22T05:14:44;15.38;;;7.88;;
40971;SDS011;26701;47.408;19.174;2023-02-22T05:17:10;13.23;;;9.20;;
40971;SDS011;26701;47.408;19.174;2023-02-22T05:19:36;16.48;;;9.18;;
40971;SDS011;26701;47.408;19.174;2023-02-22T05:22:02;12.13;;;7.50;;
40971;SDS011;26701;47.408;19.174;2023-02-22T05:24:30;16.10;;;8.48;;
40971;SDS011;26701;47.408;19.174;2023-02-22T05:26:56;13.80;;;8.05;;
40971;SDS011;26701;47.408;19.174;2023-02-22T05:29:22;12.82;;;7.55;;
40971;SDS011;26701;47.408;19.174;2023-02-22T05:31:48;13.93;;;7.60;;
40971;SDS011;26701;47.408;19.174;2023-02-22T05:34:15;14.73;;;8.13;;
40971;SDS011;26701;47.408;19.174;2023-02-22T05:36:41;11.73;;;6.93;;
40971;SDS011;26701;47.408;19.174;2023-02-22T05:39:07;15.43;;;7.93;;
40971;SDS011;26701;47.408;19.174;2023-02-22T05:41:33;16.63;;;8.20;;
40971;SDS011;26701;47.408;19.174;2023-02-22T05:43:59;23.20;;;9.05;;
40971;SDS011;26701;47.408;19.174;2023-02-22T05:46:27;13.32;;;8.00;;
40971;SDS011;26701;47.408;19.174;2023-02-22T05:48:53;15.68;;;7.57;;
40971;SDS011;26701;47.408;19.174;2023-02-22T05:51:19;13.20;;;8.27;;
40971;SDS011;26701;47.408;19.174;2023-02-22T05:53:45;12.95;;;8.32;;
40971;SDS011;26701;47.408;19.174;2023-02-22T05:56:12;18.35;;;9.68;;
40971;SDS011;26701;47.408;19.174;2023-02-22T05:58:39;15.90;;;9.27;;
40971;SDS011;26701;47.408;19.174;2023-02-22T06:01:05;18.85;;;10.07;;
40971;SDS011;26701;47.408;19.174;2023-02-22T06:03:31;22.77;;;9.00;;
40971;SDS011;26701;47.408;19.174;2023-02-22T06:05:57;16.33;;;9.30;;
40971;SDS011;26701;47.408;19.174;2023-02-22T06:08:23;19.20;;;11.38;;
40971;SDS011;26701;47.408;19.174;2023-02-22T06:10:50;18.17;;;10.48;;
40971;SDS011;26701;47.408;19.174;2023-02-22T06:13:16;18.67;;;11.05;;
40971;SDS011;26701;47.408;19.174;2023-02-22T06:15:42;19.55;;;11.50;;
40971;SDS011;26701;47.408;19.174;2023-02-22T06:18:08;22.10;;;13.50;;
40971;SDS011;26701;47.408;19.174;2023-02-22T06:20:35;24.17;;;14.43;;
40971;SDS011;26701;47.408;19.174;2023-02-22T06:23:01;28.38;;;15.77;;
40971;SDS011;26701;47.408;19.174;2023-02-22T06:25:28;53.78;;;24.33;;
40971;SDS011;26701;47.408;19.174;2023-02-22T06:27:58;44.47;;;22.63;;
40971;SDS011;26701;47.408;19.174;2023-02-22T06:30:25;40.00;;;18.63;;
40971;SDS011;26701;47.408;19.174;2023-02-22T06:32:51;29.38;;;17.83;;
40971;SDS011;26701;47.408;19.174;2023-02-22T06:35:18;31.50;;;15.40;;
40971;SDS011;26701;47.408;19.174;2023-02-22T06:37:44;26.10;;;14.20;;
40971;SDS011;26701;47.408;19.174;2023-02-22T06:40:11;37.53;;;13.90;;
40971;SDS011;26701;47.408;19.174;2023-02-22T06:42:38;33.50;;;15.60;;
40971;SDS011;26701;47.408;19.174;2023-02-22T06:45:04;33.55;;;14.15;;
40971;SDS011;26701;47.408;19.174;2023-02-22T06:47:30;35.22;;;15.82;;
40971;SDS011;26701;47.408;19.174;2023-02-22T06:49:57;25.65;;;13.43;;
40971;SDS011;26701;47.408;19.174;2023-02-22T06:52:25;29.23;;;13.55;;
40971;SDS011;26701;47.408;19.174;2023-02-22T06:54:51;21.65;;;11.02;;
40971;SDS011;26701;47.408;19.174;2023-02-22T06:57:18;23.90;;;11.13;;
40971;SDS011;26701;47.408;19.174;2023-02-22T06:59:44;24.83;;;11.85;;
40971;SDS011;26701;47.408;19.174;2023-02-22T07:02:10;21.05;;;11.45;;
40971;SDS011;26701;47.408;19.174;2023-02-22T07:04:37;21.30;;;11.20;;
40971;SDS011;26701;47.408;19.174;2023-02-22T07:07:03;24.25;;;11.68;;
40971;SDS011;26701;47.408;19.174;2023-02-22T07:09:30;17.30;;;10.15;;
40971;SDS011;26701;47.408;19.174;2023-02-22T07:11:56;23.42;;;10.90;;
40971;SDS011;26701;47.408;19.174;2023-02-22T07:14:22;18.38;;;11.07;;
40971;SDS011;26701;47.408;19.174;2023-02-22T07:16:49;21.92;;;12.05;;
40971;SDS011;26701;47.408;19.174;2023-02-22T07:19:15;22.33;;;10.77;;
40971;SDS011;26701;47.408;19.174;2023-02-22T07:21:41;22.73;;;11.48;;
40971;SDS011;26701;47.408;19.174;2023-02-22T07:24:07;26.65;;;13.20;;
40971;SDS011;26701;47.408;19.174;2023-02-22T07:26:38;17.15;;;10.38;;
40971;SDS011;26701;47.408;19.174;2023-02-22T07:29:05;18.15;;;10.80;;
40971;SDS011;26701;47.408;19.174;2023-02-22T07:31:35;22.08;;;12.57;;
40971;SDS011;26701;47.408;19.174;2023-02-22T07:34:01;19.80;;;10.88;;
40971;SDS011;26701;47.408;19.174;2023-02-22T07:36:27;22.13;;;11.40;;
40971;SDS011;26701;47.408;19.174;2023-02-22T07:38:54;22.48;;;11.40;;
40971;SDS011;26701;47.408;19.174;2023-02-22T07:41:20;21.25;;;10.48;;
40971;SDS011;26701;47.408;19.174;2023-02-22T07:46:15;17.05;;;10.40;;
40971;SDS011;26701;47.408;19.174;2023-02-22T07:48:41;21.88;;;10.75;;
40971;SDS011;26701;47.408;19.174;2023-02-22T07:51:07;19.17;;;11.52;;
40971;SDS011;26701;47.408;19.174;2023-02-22T07:53:34;19.25;;;10.52;;
40971;SDS011;26701;47.408;19.174;2023-02-22T07:56:00;23.85;;;9.88;;
40971;SDS011;26701;47.408;19.174;2023-02-22T07:58:29;17.42;;;10.30;;
40971;SDS011;26701;47.408;19.174;2023-02-22T08:00:56;16.42;;;9.32;;
40971;SDS011;26701;47.408;19.174;2023-02-22T08:03:24;16.25;;;9.35;;
40971;SDS011;26701;47.408;19.174;2023-02-22T08:05:51;15.60;;;9.82;;
40971;SDS011;26701;47.408;19.174;2023-02-22T08:08:19;16.33;;;9.35;;
40971;SDS011;26701;47.408;19.174;2023-02-22T08:10:45;18.13;;;10.35;;
40971;SDS011;26701;47.408;19.174;2023-02-22T08:13:12;15.73;;;9.15;;
40971;SDS011;26701;47.408;19.174;2023-02-22T08:15:38;20.45;;;10.90;;
40971;SDS011;26701;47.408;19.174;2023-02-22T08:18:10;17.52;;;10.70;;
40971;SDS011;26701;47.408;19.174;2023-02-22T08:20:37;18.20;;;9.93;;
40971;SDS011;26701;47.408;19.174;2023-02-22T08:23:04;17.63;;;10.13;;
40971;SDS011;26701;47.408;19.174;2023-02-22T08:25:30;18.75;;;10.82;;
40971;SDS011;26701;47.408;19.174;2023-02-22T08:27:58;17.58;;;10.13;;
40971;SDS011;26701;47.408;19.174;2023-02-22T08:30:25;22.20;;;14.05;;
40971;SDS011;26701;47.408;19.174;2023-02-22T08:32:52;27.20;;;14.00;;
40971;SDS011;26701;47.408;19.174;2023-02-22T08:35:19;27.58;;;14.32;;
40971;SDS011;26701;47.408;19.174;2023-02-22T08:37:48;21.85;;;13.15;;
40971;SDS011;26701;47.408;19.174;2023-02-22T08:40:17;21.15;;;12.00;;
40971;SDS011;26701;47.408;19.174;2023-02-22T08:42:46;20.02;;;12.60;;
40971;SDS011;26701;47.408;19.174;2023-02-22T08:45:12;18.10;;;11.65;;
40971;SDS011;26701;47.408;19.174;2023-02-22T08:47:38;17.65;;;11.52;;
40971;SDS011;26701;47.408;19.174;2023-02-22T08:50:05;19.60;;;11.07;;
40971;SDS011;26701;47.408;19.174;2023-02-22T08:52:31;19.77;;;11.30;;
40971;SDS011;26701;47.408;19.174;2023-02-22T08:54:59;19.70;;;11.52;;
40971;SDS011;26701;47.408;19.174;2023-02-22T08:57:25;30.35;;;15.43;;
40971;SDS011;26701;47.408;19.174;2023-02-22T08:59:51;27.17;;;14.40;;
40971;SDS011;26701;47.408;19.174;2023-02-22T09:02:18;20.02;;;10.52;;
40971;SDS011;26701;47.408;19.174;2023-02-22T09:04:45;17.05;;;10.95;;
40971;SDS011;26701;47.408;19.174;2023-02-22T09:07:12;14.45;;;9.30;;
40971;SDS011;26701;47.408;19.174;2023-02-22T09:09:38;14.52;;;8.10;;
40971;SDS011;26701;47.408;19.174;2023-02-22T09:12:04;17.65;;;9.32;;
40971;SDS011;26701;47.408;19.174;2023-02-22T09:14:30;19.27;;;9.10;;
40971;SDS011;26701;47.408;19.174;2023-02-22T09:16:56;15.85;;;8.60;;
40971;SDS011;26701;47.408;19.174;2023-02-22T09:19:22;17.30;;;8.50;;
40971;SDS011;26701;47.408;19.174;2023-02-22T09:21:55;12.82;;;8.05;;
40971;SDS011;26701;47.408;19.174;2023-02-22T09:24:22;16.52;;;9.73;;
40971;SDS011;26701;47.408;19.174;2023-02-22T09:26:48;13.63;;;8.65;;
40971;SDS011;26701;47.408;19.174;2023-02-22T09:29:24;14.27;;;8.15;;
40971;SDS011;26701;47.408;19.174;2023-02-22T09:31:51;15.73;;;9.20;;
40971;SDS011;26701;47.408;19.174;2023-02-22T09:34:19;14.25;;;8.57;;
40971;SDS011;26701;47.408;19.174;2023-02-22T09:36:47;15.02;;;8.98;;
40971;SDS011;26701;47.408;19.174;2023-02-22T09:39:16;14.20;;;8.90;;
40971;SDS011;26701;47.408;19.174;2023-02-22T09:44:23;15.32;;;9.07;;
40971;SDS011;26701;47.408;19.174;2023-02-22T09:47:14;15.80;;;9.32;;
40971;SDS011;26701;47.408;19.174;2023-02-22T09:49:43;14.90;;;8.85;;
40971;SDS011;26701;47.408;19.174;2023-02-22T09:52:17;13.95;;;8.45;;
40971;SDS011;26701;47.408;19.174;2023-02-22T09:54:51;17.00;;;8.80;;
40971;SDS011;26701;47.408;19.174;2023-02-22T09:57:24;16.45;;;8.95;;
40971;SDS011;26701;47.408;19.174;2023-02-22T10:05:38;14.02;;;8.68;;
40971;SDS011;26701;47.408;19.174;2023-02-22T10:08:10;13.20;;;8.35;;
40971;SDS011;26701;47.408;19.174;2023-02-22T10:10:43;13.05;;;8.27;;
40971;SDS011;26701;47.408;19.174;2023-02-22T10:15:56;14.30;;;9.13;;
40971;SDS011;26701;47.408;19.174;2023-02-22T10:26:24;14.05;;;8.73;;
40971;SDS011;26701;47.408;19.174;2023-02-22T10:31:32;12.75;;;8.52;;
40971;SDS011;26701;47.408;19.174;2023-02-22T10:34:02;17.67;;;9.35;;
40971;SDS011;26701;47.408;19.174;2023-02-22T10:36:30;15.20;;;9.18;;
40971;SDS011;26701;47.408;19.174;2023-02-22T10:38:58;14.88;;;8.98;;
40971;SDS011;26701;47.408;19.174;2023-02-22T10:41:27;13.00;;;8.45;;
40971;SDS011;26701;47.408;19.174;2023-02-22T10:43:53;12.73;;;8.45;;
40971;SDS011;26701;47.408;19.174;2023-02-22T10:46:19;12.65;;;7.93;;
40971;SDS011;26701;47.408;19.174;2023-02-22T10:48:46;11.93;;;7.97;;
40971;SDS011;26701;47.408;19.174;2023-02-22T10:51:13;13.65;;;8.05;;
40971;SDS011;26701;47.408;19.174;2023-02-22T10:53:39;19.17;;;8.73;;
40971;SDS011;26701;47.408;19.174;2023-02-22T10:58:41;12.48;;;7.65;;
40971;SDS011;26701;47.408;19.174;2023-02-22T11:01:27;14.60;;;7.85;;
40971;SDS011;26701;47.408;19.174;2023-02-22T11:06:38;11.73;;;7.90;;
40971;SDS011;26701;47.408;19.174;2023-02-22T11:09:24;14.57;;;7.95;;
40971;SDS011;26701;47.408;19.174;2023-02-22T11:12:05;12.60;;;7.38;;
40971;SDS011;26701;47.408;19.174;2023-02-22T11:14:33;13.05;;;7.47;;
40971;SDS011;26701;47.408;19.174;2023-02-22T11:16:59;11.80;;;7.53;;
40971;SDS011;26701;47.408;19.174;2023-02-22T11:19:31;13.65;;;8.27;;
40971;SDS011;26701;47.408;19.174;2023-02-22T11:22:00;11.93;;;8.40;;
40971;SDS011;26701;47.408;19.174;2023-02-22T11:24:52;11.50;;;8.07;;
40971;SDS011;26701;47.408;19.174;2023-02-22T11:30:17;13.15;;;7.60;;
40971;SDS011;26701;47.408;19.174;2023-02-22T11:33:29;13.88;;;7.18;;
40971;SDS011;26701;47.408;19.174;2023-02-22T11:35:38;11.07;;;7.00;;
40971;SDS011;26701;47.408;19.174;2023-02-22T11:38:08;13.55;;;8.18;;
40971;SDS011;26701;47.408;19.174;2023-02-22T11:40:35;16.30;;;8.90;;
40971;SDS011;26701;47.408;19.174;2023-02-22T11:45:36;15.40;;;8.50;;
40971;SDS011;26701;47.408;19.174;2023-02-22T11:48:04;15.35;;;8.15;;
40971;SDS011;26701;47.408;19.174;2023-02-22T11:51:15;14.35;;;8.48;;
40971;SDS011;26701;47.408;19.174;2023-02-22T11:56:47;12.07;;;7.72;;
40971;SDS011;26701;47.408;19.174;2023-02-22T11:58:46;12.43;;;8.55;;
40971;SDS011;26701;47.408;19.174;2023-02-22T12:01:15;11.85;;;7.38;;
40971;SDS011;26701;47.408;19.174;2023-02-22T12:11:51;11.88;;;7.25;;
40971;SDS011;26701;47.408;19.174;2023-02-22T12:17:06;12.63;;;7.57;;
40971;SDS011;26701;47.408;19.174;2023-02-22T12:20:16;14.02;;;8.93;;
40971;SDS011;26701;47.408;19.174;2023-02-22T12:22:45;14.25;;;8.57;;
40971;SDS011;26701;47.408;19.174;2023-02-22T12:25:25;12.85;;;7.38;;
40971;SDS011;26701;47.408;19.174;2023-02-22T12:28:01;16.92;;;7.82;;
40971;SDS011;26701;47.408;19.174;2023-02-22T12:30:29;14.30;;;8.70;;
40971;SDS011;26701;47.408;19.174;2023-02-22T12:33:02;18.60;;;8.68;;
40971;SDS011;26701;47.408;19.174;2023-02-22T12:35:32;20.02;;;9.10;;
40971;SDS011;26701;47.408;19.174;2023-02-22T12:48:43;14.52;;;8.43;;
40971;SDS011;26701;47.408;19.174;2023-02-22T12:54:02;21.58;;;10.52;;
40971;SDS011;26701;47.408;19.174;2023-02-22T13:01:50;18.40;;;9.77;;
40971;SDS011;26701;47.408;19.174;2023-02-22T13:04:18;18.83;;;10.38;;
40971;SDS011;26701;47.408;19.174;2023-02-22T13:06:48;16.77;;;9.85;;
40971;SDS011;26701;47.408;19.174;2023-02-22T13:11:54;17.70;;;10.45;;
40971;SDS011;26701;47.408;19.174;2023-02-22T13:14:33;23.65;;;11.27;;
40971;SDS011;26701;47.408;19.174;2023-02-22T13:17:20;17.63;;;10.07;;
40971;SDS011;26701;47.408;19.174;2023-02-22T13:22:35;18.13;;;11.43;;
40971;SDS011;26701;47.408;19.174;2023-02-22T13:25:13;17.33;;;10.32;;
40971;SDS011;26701;47.408;19.174;2023-02-22T13:27:48;20.17;;;10.13;;
40971;SDS011;26701;47.408;19.174;2023-02-22T13:32:53;20.92;;;11.05;;
40971;SDS011;26701;47.408;19.174;2023-02-22T13:56:20;15.93;;;9.80;;
40971;SDS011;26701;47.408;19.174;2023-02-22T14:04:23;18.40;;;9.80;;
40971;SDS011;26701;47.408;19.174;2023-02-22T14:06:57;16.20;;;9.50;;
40971;SDS011;26701;47.408;19.174;2023-02-22T14:12:30;15.23;;;9.07;;
40971;SDS011;26701;47.408;19.174;2023-02-22T14:17:33;21.80;;;11.85;;
40971;SDS011;26701;47.408;19.174;2023-02-22T14:20:00;17.92;;;10.57;;
40971;SDS011;26701;47.408;19.174;2023-02-22T14:22:28;17.77;;;10.38;;
40971;SDS011;26701;47.408;19.174;2023-02-22T14:24:54;18.40;;;10.18;;
40971;SDS011;26701;47.408;19.174;2023-02-22T14:27:21;17.60;;;10.07;;
40971;SDS011;26701;47.408;19.174;2023-02-22T14:29:51;18.20;;;10.43;;
40971;SDS011;26701;47.408;19.174;2023-02-22T14:32:18;18.80;;;10.45;;
40971;SDS011;26701;47.408;19.174;2023-02-22T14:37:18;21.52;;;10.63;;
40971;SDS011;26701;47.408;19.174;2023-02-22T14:42:13;21.42;;;11.63;;
40971;SDS011;26701;47.408;19.174;2023-02-22T14:47:13;23.83;;;13.10;;
40971;SDS011;26701;47.408;19.174;2023-02-22T14:49:45;26.85;;;14.15;;
40971;SDS011;26701;47.408;19.174;2023-02-22T14:52:23;22.05;;;13.32;;
40971;SDS011;26701;47.408;19.174;2023-02-22T14:58:04;20.73;;;12.80;;
40971;SDS011;26701;47.408;19.174;2023-02-22T15:00:42;21.58;;;11.80;;
40971;SDS011;26701;47.408;19.174;2023-02-22T15:05:48;22.27;;;13.03;;
40971;SDS011;26701;47.408;19.174;2023-02-22T15:08:15;22.23;;;12.90;;
40971;SDS011;26701;47.408;19.174;2023-02-22T15:10:46;24.27;;;14.52;;
40971;SDS011;26701;47.408;19.174;2023-02-22T15:15:41;18.58;;;11.15;;
40971;SDS011;26701;47.408;19.174;2023-02-22T15:18:22;19.88;;;11.20;;
40971;SDS011;26701;47.408;19.174;2023-02-22T15:20:55;21.15;;;12.13;;
40971;SDS011;26701;47.408;19.174;2023-02-22T15:23:23;18.23;;;11.60;;
40971;SDS011;26701;47.408;19.174;2023-02-22T15:25:54;18.63;;;11.15;;
40971;SDS011;26701;47.408;19.174;2023-02-22T15:28:20;21.13;;;11.15;;
40971;SDS011;26701;47.408;19.174;2023-02-22T15:30:48;19.07;;;11.73;;
40971;SDS011;26701;47.408;19.174;2023-02-22T15:33:18;19.70;;;10.88;;
40971;SDS011;26701;47.408;19.174;2023-02-22T15:35:52;18.30;;;10.25;;
40971;SDS011;26701;47.408;19.174;2023-02-22T15:38:19;17.02;;;9.48;;
40971;SDS011;26701;47.408;19.174;2023-02-22T15:40:54;18.70;;;11.80;;
40971;SDS011;26701;47.408;19.174;2023-02-22T15:43:24;19.10;;;10.00;;
40971;SDS011;26701;47.408;19.174;2023-02-22T15:45:55;19.08;;;11.27;;
40971;SDS011;26701;47.408;19.174;2023-02-22T15:48:22;19.35;;;10.43;;
40971;SDS011;26701;47.408;19.174;2023-02-22T15:51:04;17.15;;;10.00;;
40971;SDS011;26701;47.408;19.174;2023-02-22T15:56:08;23.50;;;11.93;;
40971;SDS011;26701;47.408;19.174;2023-02-22T15:58:35;17.48;;;10.73;;
40971;SDS011;26701;47.408;19.174;2023-02-22T16:01:12;18.92;;;10.75;;
40971;SDS011;26701;47.408;19.174;2023-02-22T16:03:41;21.13;;;12.02;;
40971;SDS011;26701;47.408;19.174;2023-02-22T16:06:33;21.40;;;12.68;;
40971;SDS011;26701;47.408;19.174;2023-02-22T16:09:09;19.38;;;10.82;;
40971;SDS011;26701;47.408;19.174;2023-02-22T16:11:37;26.95;;;13.00;;
40971;SDS011;26701;47.408;19.174;2023-02-22T16:20:27;35.28;;;17.92;;
40971;SDS011;26701;47.408;19.174;2023-02-22T16:22:46;28.23;;;15.32;;
40971;SDS011;26701;47.408;19.174;2023-02-22T16:27:42;25.98;;;14.57;;
40971;SDS011;26701;47.408;19.174;2023-02-22T16:32:47;33.83;;;16.48;;
40971;SDS011;26701;47.408;19.174;2023-02-22T16:35:13;31.00;;;16.77;;
40971;SDS011;26701;47.408;19.174;2023-02-22T16:37:46;33.67;;;18.65;;
40971;SDS011;26701;47.408;19.174;2023-02-22T16:40:22;31.08;;;17.65;;
40971;SDS011;26701;47.408;19.174;2023-02-22T16:42:51;34.13;;;17.58;;
40971;SDS011;26701;47.408;19.174;2023-02-22T16:45:18;33.15;;;18.65;;
40971;SDS011;26701;47.408;19.174;2023-02-22T16:47:45;37.20;;;16.60;;
40971;SDS011;26701;47.408;19.174;2023-02-22T16:50:11;31.60;;;16.13;;
40971;SDS011;26701;47.408;19.174;2023-02-22T16:52:38;32.65;;;16.38;;
40971;SDS011;26701;47.408;19.174;2023-02-22T16:55:05;33.40;;;16.48;;
40971;SDS011;26701;47.408;19.174;2023-02-22T16:57:35;30.63;;;14.88;;
40971;SDS011;26701;47.408;19.174;2023-02-22T17:00:03;27.85;;;16.23;;
40971;SDS011;26701;47.408;19.174;2023-02-22T17:02:32;32.20;;;16.17;;
40971;SDS011;26701;47.408;19.174;2023-02-22T17:04:58;25.70;;;14.13;;
40971;SDS011;26701;47.408;19.174;2023-02-22T17:07:24;31.25;;;13.98;;
40971;SDS011;26701;47.408;19.174;2023-02-22T17:09:55;24.90;;;14.73;;
40971;SDS011;26701;47.408;19.174;2023-02-22T17:12:25;31.85;;;15.13;;
40971;SDS011;26701;47.408;19.174;2023-02-22T17:14:52;36.25;;;19.15;;
40971;SDS011;26701;47.408;19.174;2023-02-22T17:17:18;31.13;;;17.10;;
40971;SDS011;26701;47.408;19.174;2023-02-22T17:19:44;31.13;;;18.73;;
40971;SDS011;26701;47.408;19.174;2023-02-22T17:22:17;31.30;;;18.75;;
40971;SDS011;26701;47.408;19.174;2023-02-22T17:24:44;31.52;;;18.60;;
40971;SDS011;26701;47.408;19.174;2023-02-22T17:27:10;32.58;;;18.13;;